Princeton, MN (55371)

4:26 AM CST on February 10, 2016 (GMT -0600)
Baldwin | | Change Station
CLOSE
Current Station
Personal Weather Station
Location: Princeton, MN
Elevation: 965 ft
Nearby Weather Stations

Elev 965 ft 45.52 °N, 93.62 °W | Updated 25 seconds ago

Clear
Clear
2.5 °F
Feels Like 2 °F
N
1.1
Wind Variable Wind from South
Gusts 2.5 mph

Today
High -- | Low -- °F
--% Chance of Precip.
Yesterday
High -- | Low -- °F
Precip. -- in
Pressure 30.11 in
Visibility 10.0 miles
Clouds Clear
Windchill 2 °F
Dew Point -12 °F
Humidity 49%
Rainfall 0.00 in
Snow Depth Not available.
7:24 AM 5:33 PM
Waxing Crescent, 5% visible
METAR KPNM 101014Z AUTO 31003KT 10SM CLR M16/M20 A3011 RMK AO2
Pressure 30.11 in
Visibility 10.0 miles
Clouds Clear
Windchill 2 °F
Dew Point -12 °F
Humidity 49%
Rainfall 0.00 in
Snow Depth Not available.
7:24 AM 5:33 PM
Waxing Crescent, 5% visible
METAR KPNM 101014Z AUTO 31003KT 10SM CLR M16/M20 A3011 RMK AO2

10-Day Weather Forecast

Almanac

Astronomy

Feb. 10, 2016 Rise Set
Actual Time
Civil Twilight
Nautical Twilight
Astronomical Twilight
Moon
Length of Visible Light
Length of Day
Tomorrow will be .
, % of the Moon is Illuminated

Today's Extremes

State Highs State Lows

Community

WunderPhotos

Upload Photos

1,891,830 photos uploaded!

WunderBlog® & News

Nearby

Air Quality

  Air Quality AQ Index Pollutant
Not available.

Snow Depth

Station Depth Elevation

Earthquake Activity

City Distance Mag. Time & Date
Minimum magnitude displayed is 2.5.

Coastal Water Temperatures

Place Temperature

Stations

Nearby Weather Stations

Station Location Temp. Windchill Dew Point Humidity Wind Precip. Elev Updated Type
                   

Watches & Warnings

There are currently no watches in effect.